Greenville Downtown Airport (GMU)

 

Airport Diagram
Current Weather/Forecast (VFR Conditions)
METAR KGMU 161453Z 24005KT 10SM CLR 09/07 A3004 RMK AO2 SLP175 T00890067 53019
TAF KGMU 161136Z 1612/1712 25005KT 6SM BR FEW003 FM161300 25006KT P6SM FEW200 FM162300 31003KT P6SM FEW250 FM170800 VRB03KT P6SM FEW011

All Charts
General (3)
Chart Name Download
AIRPORT DIAGRAM
ALTERNATE MINIMUMS
TAKEOFF MINIMUMS

Departures (3)
Chart Name Download
BIMMR ONE (RNAV)
BWALL ONE (RNAV)
BWALL ONE (RNAV), CONT.1

Arrivals (5)
Chart Name Download
JUNNR TWO (RNAV)
MCHLN ONE (RNAV)
RCTOR ONE (RNAV)
UNMAN THREE (RNAV)
WORXS ONE (RNAV)

Approaches (7)
Chart Name Download
ILS Y OR LOC Y RWY 01
ILS Z OR LOC Z RWY 01
NDB RWY 01
RNAV (GPS) RWY 01
RNAV (GPS) RWY 10
RNAV (GPS) RWY 19
RNAV (GPS) RWY 28


Inbound Traffic (Arrivals)

No inbound traffic.


Outbound Traffic (Departures)

No outbound traffic.